»·PEaware :: N716TH KSBP-KHAF

N716TH :: KSBP-KHAF

FLIGHT INFORMATION

Flight Status: Arrived
Operator: Privately registered:
United States
More flights under this callsign
Pilot: Danny R. (17997)
Aircraft: CESSNA 172 SKYHAWK
(C172)
More flights by this aircraft type
Origin: KSBP San Luis Co Regl
United States
Destination: KHAF Half Moon Bay
United States
More flights between these airports :: More routes between these airports
Route: +
File this flight plan on PilotEdge
Remarks:
Altitude:
(Current/Filed)
4,500ft
Speed:
(Current/Filed)
0kts
Departed: 09-Mar-18 10:49 AM
Arrived: 09-Mar-18 12:27 PM
Distance/Time
Traveled:
163nm/1:38
Distance/Time
To Go:
Arrived

Flight Plot

Page will automatically refresh every two minutes.

Flight plan parsing failed; only flown route is shown


Map Options




Map Legend


Flown Route
Filed Route
Departure Airport
Arrival Airport
Navaid (VOR, NDB)
Fix

Horizontal Profiles

Position Reports

Time Latitude Longitude Heading Altitude Ground
Speed
09-Mar-18 10:47 35.314699 -120.874110 301 4507ft 98kts
09-Mar-18 10:48 35.330049 -120.902224 307 4499ft 99kts
09-Mar-18 10:49 35.345106 -120.929801 303 4491ft 94kts
09-Mar-18 10:50 35.359455 -120.956125 305 4493ft 91kts
09-Mar-18 10:51 35.374886 -120.980786 324 4494ft 91kts
09-Mar-18 10:52 35.389929 -121.005832 304 4487ft 93kts
09-Mar-18 10:53 35.404606 -121.032456 305 4482ft 96kts
09-Mar-18 10:54 35.420009 -121.059651 307 4488ft 95kts
09-Mar-18 10:55 35.435099 -121.086368 305 4484ft 95kts
09-Mar-18 10:56 35.450221 -121.113092 303 4483ft 94kts
09-Mar-18 10:57 35.465265 -121.139642 303 4483ft 96kts
09-Mar-18 10:58 35.480631 -121.166769 306 4486ft 98kts
09-Mar-18 10:59 35.499757 -121.189389 336 4484ft 96kts
09-Mar-18 11:00 35.519309 -121.210593 306 4480ft 98kts
09-Mar-18 11:01 35.534838 -121.237995 305 4475ft 96kts
09-Mar-18 11:02 35.550091 -121.264917 305 4475ft 95kts
09-Mar-18 11:03 35.565222 -121.291620 305 4477ft 95kts
09-Mar-18 11:04 35.580373 -121.318356 305 4475ft 95kts
09-Mar-18 11:04 35.593049 -121.340725 305 4472ft 95kts
09-Mar-18 11:06 35.610843 -121.372118 305 4474ft 97kts
09-Mar-18 11:07 35.626306 -121.399403 305 4469ft 97kts
09-Mar-18 11:07 35.639159 -121.422079 305 4473ft 97kts
09-Mar-18 11:09 35.661851 -121.444005 2 4475ft 95kts
09-Mar-18 11:09 35.683943 -121.443107 2 4468ft 96kts
09-Mar-18 11:10 35.710676 -121.442011 2 4474ft 96kts
09-Mar-18 11:11 35.737409 -121.440912 2 4461ft 96kts
09-Mar-18 11:12 35.763961 -121.439816 2 4468ft 95kts
09-Mar-18 11:13 35.790292 -121.442300 345 4459ft 96kts
09-Mar-18 11:14 35.815194 -121.453158 337 4478ft 93kts
09-Mar-18 11:16 35.839146 -121.465315 339 4484ft 92kts
09-Mar-18 11:17 35.862711 -121.477498 336 4483ft 90kts
09-Mar-18 11:18 35.886179 -121.489669 340 4479ft 92kts
09-Mar-18 11:19 35.910130 -121.502115 336 4476ft 94kts
09-Mar-18 11:20 35.934304 -121.514671 340 4484ft 93kts
09-Mar-18 11:21 35.958161 -121.527064 340 4478ft 93kts
09-Mar-18 11:22 35.984085 -121.540602 340 4616ft 106kts
09-Mar-18 11:23 36.010621 -121.554458 337 5045ft 100kts
09-Mar-18 11:24 36.037113 -121.568261 336 5371ft 107kts
09-Mar-18 11:25 36.064721 -121.582668 338 5707ft 105kts
09-Mar-18 11:26 36.091486 -121.596658 337 6113ft 99kts
09-Mar-18 11:27 36.111424 -121.607098 337 6504ft 96kts
09-Mar-18 11:28 36.139440 -121.621694 337 6525ft 116kts
09-Mar-18 11:29 36.169102 -121.637200 338 6551ft 116kts
09-Mar-18 11:30 36.197733 -121.652154 337 6541ft 106kts
09-Mar-18 11:31 36.225022 -121.666493 337 6527ft 107kts
09-Mar-18 11:32 36.252555 -121.680951 338 6513ft 106kts
09-Mar-18 11:33 36.280042 -121.695053 337 6506ft 107kts
09-Mar-18 11:34 36.307441 -121.709433 336 6508ft 107kts
09-Mar-18 11:35 36.334952 -121.723926 337 6494ft 107kts
09-Mar-18 11:36 36.362236 -121.738299 337 6492ft 106kts
09-Mar-18 11:37 36.389531 -121.752703 337 6490ft 106kts
09-Mar-18 11:38 36.416616 -121.766999 338 6503ft 104kts
09-Mar-18 11:39 36.443410 -121.781156 337 6501ft 104kts
09-Mar-18 11:40 36.470363 -121.795394 338 6491ft 105kts
09-Mar-18 11:41 36.497294 -121.809652 336 6493ft 106kts
09-Mar-18 11:42 36.524755 -121.824188 336 6486ft 107kts
09-Mar-18 11:43 36.552268 -121.838780 336 6483ft 107kts
09-Mar-18 11:44 36.579694 -121.853327 336 6488ft 107kts
09-Mar-18 11:45 36.606908 -121.867762 337 6496ft 105kts
09-Mar-18 11:46 36.633889 -121.882076 337 6485ft 105kts
09-Mar-18 11:47 36.660764 -121.896377 337 6483ft 104kts
09-Mar-18 11:48 36.687528 -121.910609 337 6478ft 104kts
09-Mar-18 11:49 36.714196 -121.924816 337 6471ft 105kts
09-Mar-18 11:50 36.740942 -121.939065 337 6481ft 104kts
09-Mar-18 11:51 36.767692 -121.953321 337 6482ft 104kts
09-Mar-18 11:52 36.794414 -121.967564 337 6482ft 104kts
09-Mar-18 11:53 36.821079 -121.981817 337 6484ft 104kts
09-Mar-18 11:54 36.847788 -121.996088 337 6480ft 105kts
09-Mar-18 11:55 36.874583 -122.010425 337 6483ft 104kts
09-Mar-18 11:56 36.901262 -122.024708 337 6480ft 104kts
09-Mar-18 11:57 36.927994 -122.039021 337 6479ft 104kts
09-Mar-18 11:58 36.952946 -122.052349 337 6257ft 94kts
09-Mar-18 11:59 36.977582 -122.065540 337 5775ft 95kts
09-Mar-18 12:00 37.002058 -122.078665 338 5287ft 96kts
09-Mar-18 12:01 37.026114 -122.091601 338 4833ft 94kts
09-Mar-18 12:02 37.051080 -122.105043 337 4563ft 100kts
09-Mar-18 12:03 37.076313 -122.118629 335 4573ft 97kts
09-Mar-18 12:04 37.101179 -122.132008 335 4579ft 97kts
09-Mar-18 12:05 37.124161 -122.144414 334 4751ft 85kts
09-Mar-18 12:06 37.146212 -122.156316 333 4743ft 84kts
09-Mar-18 12:07 37.167712 -122.168187 335 4578ft 88kts
09-Mar-18 12:08 37.190685 -122.180248 335 4236ft 90kts
09-Mar-18 12:09 37.211662 -122.196307 328 3990ft 83kts
09-Mar-18 12:10 37.231436 -122.212352 331 3993ft 90kts
09-Mar-18 12:11 37.256339 -122.232499 331 3879ft 117kts
09-Mar-18 12:12 37.283503 -122.254528 331 3803ft 107kts
09-Mar-18 12:13 37.305892 -122.272724 332 3790ft 91kts
09-Mar-18 12:14 37.326757 -122.289689 332 3786ft 88kts
09-Mar-18 12:15 37.346772 -122.307839 322 3788ft 92kts
09-Mar-18 12:16 37.365801 -122.329340 326 3678ft 97kts
09-Mar-18 12:17 37.386235 -122.352317 316 3365ft 99kts
09-Mar-18 12:18 37.404664 -122.376854 326 3111ft 101kts
09-Mar-18 12:19 37.425667 -122.398633 317 2588ft 98kts
09-Mar-18 12:20 37.444536 -122.419768 323 2050ft 76kts
09-Mar-18 12:21 37.457176 -122.435287 310 1668ft 61kts
09-Mar-18 12:22 37.468901 -122.450345 314 1288ft 60kts
09-Mar-18 12:23 37.479940 -122.464075 313 1044ft 47kts
09-Mar-18 12:24 37.490213 -122.476954 313 675ft 50kts
09-Mar-18 12:25 37.502019 -122.487618 316 345ft 53kts
09-Mar-18 12:26 37.511800 -122.499207 318 67ft 28kts
09-Mar-18 12:27 37.515328 -122.499484 100 67ft 13kts
09-Mar-18 12:28 37.514120 -122.495843 125 67ft 8kts
09-Mar-18 12:29 37.513550 -122.495698 309 67ft 0kts
09-Mar-18 12:30 37.513550 -122.495698 309 67ft 0kts
09-Mar-18 12:31 37.513550 -122.495698 309 67ft 0kts
09-Mar-18 12:32 37.513550 -122.495698 309 67ft 0kts
09-Mar-18 12:33 37.513550 -122.495698 309 67ft 0kts
09-Mar-18 12:34 37.513550 -122.495698 309 67ft 0kts
09-Mar-18 12:35 37.513550 -122.495698 309 67ft 0kts
09-Mar-18 12:36 37.513550 -122.495698 309 67ft 0kts
09-Mar-18 12:37 37.513550 -122.495698 309 67ft 0kts
09-Mar-18 12:38 37.513550 -122.495698 309 67ft 0kts
09-Mar-18 12:39 37.513550 -122.495698 309 67ft 0kts

Navigation Log

Ident Type
Flight plan parsing failed, navigation log unavailable